This is the latest recevied weather packets stored in our database for station/object WW4HG. If no packets are shown the sender has not sent any weather packets the latest 10 day(s).
| Time | Temp. | Humidity | Pressure | Rain* | Wind** | Luminosity | Snow |
|---|---|---|---|---|---|---|---|
| 1778085338 | 26.11° C | 40% | 1017.7 hPa | 0 mm | - | 430 W/m² | - |
| 1778085033 | 25.56° C | 40% | 1017.3 hPa | 0 mm | - | 387 W/m² | - |
| 1778084730 | 25.56° C | 41% | 1017.7 hPa | 0 mm | - | 381 W/m² | - |
| 1778084422 | 25.56° C | 42% | 1017.3 hPa | 0 mm | - | 352 W/m² | - |
| 1778084119 | 25.56° C | 42% | 1017.7 hPa | 0 mm | - | 344 W/m² | - |
| 1778083816 | 25° C | 42% | 1017.7 hPa | 0 mm | - | 297 W/m² | - |
| 1778083514 | 25° C | 44% | 1018 hPa | 0 mm | - | 268 W/m² | - |
| 1778083211 | 25° C | 45% | 1017.7 hPa | 0 mm | - | 252 W/m² | - |
| 1778082909 | 25° C | 45% | 1017.7 hPa | 0 mm | - | 225 W/m² | - |
| 1778081801 | 25.56° C | 44% | 1017.7 hPa | 0 mm | - | 198 W/m² | - |
| 1778081498 | 25.56° C | 43% | 1018 hPa | 0 mm | - | 281 W/m² | - |
| 1778081195 | 25.56° C | 43% | 1018 hPa | 0 mm | - | 260 W/m² | - |
| 1778080892 | 25.56° C | 43% | 1018.4 hPa | 0 mm | - | 348 W/m² | - |
| 1778080591 | 25.56° C | 42% | 1018.4 hPa | 0 mm | - | 379 W/m² | - |
| 1778080287 | 25.56° C | 43% | 1018.4 hPa | 0 mm | - | 408 W/m² | - |
| 1778079984 | 25.56° C | 43% | 1018.4 hPa | 0 mm | - | 380 W/m² | - |
| 1778079681 | 25.56° C | 43% | 1018 hPa | 0 mm | - | 337 W/m² | - |
| 1778079378 | 25.56° C | 44% | 1018.4 hPa | 0 mm | - | 379 W/m² | - |
| 1778079075 | 25.56° C | 43% | 1018 hPa | 0 mm | - | 353 W/m² | - |
| 1778078772 | 25° C | 43% | 1018 hPa | 0 mm | - | 237 W/m² | - |
| 1778078469 | 25° C | 44% | 1018 hPa | 0 mm | - | 305 W/m² | - |
| 1778078167 | 24.44° C | 43% | 1017.7 hPa | 0 mm | - | 248 W/m² | - |
| 1778077864 | 24.44° C | 44% | 1018.4 hPa | 0 mm | - | 394 W/m² | - |
| 1778077562 | 23.89° C | 45% | 1017.7 hPa | 0 mm | - | 395 W/m² | - |
| 1778077260 | 23.89° C | 47% | 1018 hPa | 0 mm | - | 359 W/m² | - |
* Rain latest hour (hover to see other rain measurements)
** Current wind speed in m/s (hover to see current wind gust speed)